createdAt,value
2023-05-15T00:02:20.532Z,11.52
2023-05-15T00:04:47.889Z,15.07
2023-05-15T00:07:15.291Z,14.55
2023-05-15T00:09:42.597Z,13.48
2023-05-15T00:12:10.010Z,9.05
2023-05-15T00:14:37.185Z,10.07
2023-05-15T00:17:04.373Z,11.77
2023-05-15T00:19:31.731Z,8.80
2023-05-15T00:21:58.912Z,14.43
2023-05-15T00:24:26.130Z,12.70
2023-05-15T00:26:53.338Z,15.77
2023-05-15T00:29:20.581Z,14.15
2023-05-15T00:31:47.882Z,10.75
2023-05-15T00:34:15.134Z,11.80
2023-05-15T00:36:42.318Z,10.10
2023-05-15T00:39:09.666Z,9.57
2023-05-15T00:41:37.518Z,12.82
2023-05-15T00:44:05.263Z,15.88
2023-05-15T00:46:33.052Z,13.82
2023-05-15T00:49:00.816Z,12.95
2023-05-15T00:51:28.019Z,10.48
2023-05-15T00:53:56.829Z,11.48
2023-05-15T00:56:24.867Z,12.23
2023-05-15T00:58:52.387Z,11.35
2023-05-15T01:01:19.763Z,9.02
2023-05-15T01:03:46.989Z,10.13
2023-05-15T01:06:14.241Z,11.25
2023-05-15T01:08:46.812Z,11.82
2023-05-15T01:11:15.425Z,11.45
2023-05-15T01:13:43.252Z,12.85
2023-05-15T01:16:10.963Z,10.70
2023-05-15T01:18:38.301Z,9.10
2023-05-15T01:21:27.225Z,11.90
2023-05-15T01:23:57.504Z,9.25
2023-05-15T01:26:46.404Z,12.40
2023-05-15T01:29:21.871Z,10.10
2023-05-15T01:31:59.072Z,13.02
2023-05-15T01:34:32.544Z,10.77
2023-05-15T01:37:03.405Z,11.52
2023-05-15T01:39:33.282Z,10.63
2023-05-15T01:42:09.459Z,13.20
2023-05-15T01:44:39.344Z,11.55
2023-05-15T01:47:14.109Z,15.20
2023-05-15T01:49:43.220Z,12.55
2023-05-15T01:52:34.003Z,10.75
2023-05-15T01:55:05.042Z,10.98
2023-05-15T01:57:33.239Z,9.82
2023-05-15T02:00:01.135Z,12.38
2023-05-15T02:02:28.889Z,11.07
2023-05-15T02:04:56.938Z,7.93
2023-05-15T02:07:25.167Z,11.82
2023-05-15T02:09:52.815Z,10.90
2023-05-15T02:12:21.152Z,10.88
2023-05-15T02:14:49.752Z,11.30
2023-05-15T02:17:17.144Z,10.63
2023-05-15T02:19:44.383Z,10.05
2023-05-15T02:22:11.686Z,13.10
2023-05-15T02:24:39.184Z,11.88
2023-05-15T02:27:17.858Z,16.10
2023-05-15T02:30:06.548Z,13.68
2023-05-15T02:32:47.396Z,11.25
2023-05-15T02:35:20.635Z,16.48
2023-05-15T02:37:50.654Z,13.48
2023-05-15T02:40:19.668Z,12.38
2023-05-15T02:42:47.477Z,14.45
2023-05-15T02:45:14.959Z,13.23
2023-05-15T02:47:42.745Z,11.57
2023-05-15T02:50:10.578Z,10.45
2023-05-15T02:52:37.891Z,13.43
2023-05-15T02:55:06.301Z,13.02
2023-05-15T02:57:34.098Z,12.55
2023-05-15T03:00:01.484Z,19.08
2023-05-15T03:02:28.758Z,12.05
2023-05-15T03:04:56.082Z,13.13
2023-05-15T03:07:23.364Z,11.38
2023-05-15T03:09:50.560Z,11.32
2023-05-15T03:12:17.772Z,15.02
2023-05-15T03:14:44.990Z,11.73
2023-05-15T03:17:12.379Z,10.38
2023-05-15T03:19:39.711Z,14.55
2023-05-15T03:22:07.282Z,13.30
2023-05-15T03:24:34.563Z,16.23
2023-05-15T03:27:01.856Z,13.23
2023-05-15T03:29:29.367Z,15.23
2023-05-15T03:31:56.996Z,12.57
2023-05-15T03:34:24.246Z,18.67
2023-05-15T03:36:51.504Z,14.80
2023-05-15T03:39:18.781Z,18.50
2023-05-15T03:41:45.972Z,17.85
2023-05-15T03:44:13.328Z,13.73
2023-05-15T03:46:40.632Z,15.90
2023-05-15T03:49:08.000Z,13.40
2023-05-15T03:51:35.410Z,13.80
2023-05-15T03:54:05.182Z,14.60
2023-05-15T03:56:33.038Z,14.68
2023-05-15T03:59:00.282Z,12.77
2023-05-15T04:01:27.490Z,15.65
2023-05-15T04:03:54.724Z,15.40
2023-05-15T04:06:22.917Z,14.63
2023-05-15T04:08:50.406Z,18.05
2023-05-15T04:11:17.682Z,20.73
2023-05-15T04:13:44.950Z,18.42
2023-05-15T04:16:12.309Z,17.25
2023-05-15T04:18:39.583Z,22.80
2023-05-15T04:21:09.572Z,24.58
2023-05-15T04:23:36.806Z,24.10
2023-05-15T04:26:04.061Z,21.63
2023-05-15T04:28:32.407Z,19.30
2023-05-15T04:30:59.936Z,24.98
2023-05-15T04:33:27.213Z,20.65
2023-05-15T04:35:54.391Z,24.10
2023-05-15T04:38:21.581Z,14.77
2023-05-15T04:40:49.314Z,15.32
2023-05-15T04:43:16.600Z,23.30
2023-05-15T04:45:43.943Z,18.05
2023-05-15T04:48:11.201Z,21.65
2023-05-15T04:50:38.415Z,16.98
2023-05-15T04:53:15.175Z,20.90
2023-05-15T04:55:42.532Z,15.90
2023-05-15T04:58:09.932Z,17.60
2023-05-15T05:00:37.139Z,17.23
2023-05-15T05:03:04.929Z,14.77
2023-05-15T05:05:32.199Z,21.88
2023-05-15T05:07:59.424Z,15.02
2023-05-15T05:10:27.230Z,17.63
2023-05-15T05:12:55.385Z,16.35
2023-05-15T05:15:22.750Z,15.80
2023-05-15T05:17:50.101Z,20.25
2023-05-15T05:20:17.607Z,17.42
2023-05-15T05:22:44.956Z,15.35
2023-05-15T05:25:12.182Z,14.27
2023-05-15T05:27:39.484Z,11.30
2023-05-15T05:30:07.403Z,15.57
2023-05-15T05:32:34.711Z,17.17
2023-05-15T05:35:02.081Z,18.55
2023-05-15T05:37:29.434Z,13.18
2023-05-15T05:39:56.787Z,17.60
2023-05-15T05:42:24.019Z,15.20
2023-05-15T05:44:51.371Z,16.73
2023-05-15T05:47:18.594Z,12.32
2023-05-15T05:49:48.259Z,16.35
2023-05-15T05:52:16.764Z,13.60
2023-05-15T05:54:49.953Z,11.27
2023-05-15T05:57:17.538Z,28.33
2023-05-15T05:59:45.881Z,16.13
2023-05-15T06:02:13.484Z,15.05
2023-05-15T06:04:41.296Z,13.07
2023-05-15T06:07:08.884Z,14.00
2023-05-15T06:09:36.332Z,18.60
2023-05-15T06:12:08.301Z,15.82
2023-05-15T06:14:36.116Z,14.93
2023-05-15T06:17:03.756Z,11.10
2023-05-15T06:19:31.541Z,12.80
2023-05-15T06:21:58.820Z,13.95
2023-05-15T06:24:26.120Z,13.52
2023-05-15T06:26:53.469Z,19.70
2023-05-15T06:29:21.760Z,19.95
2023-05-15T06:31:48.995Z,26.77
2023-05-15T06:34:16.333Z,13.32
2023-05-15T06:36:43.534Z,21.58
2023-05-15T06:39:10.983Z,12.27
2023-05-15T06:41:38.590Z,19.98
2023-05-15T06:44:06.325Z,18.23
2023-05-15T06:46:33.868Z,17.85
2023-05-15T06:49:01.236Z,19.23
2023-05-15T06:51:28.491Z,12.05
2023-05-15T06:53:55.744Z,22.70
2023-05-15T06:56:23.011Z,15.88
2023-05-15T06:58:50.178Z,17.25
2023-05-15T07:01:17.392Z,20.92
2023-05-15T07:03:44.669Z,19.98
2023-05-15T07:06:11.848Z,24.48
2023-05-15T07:08:39.072Z,12.90
2023-05-15T07:11:06.326Z,15.20
2023-05-15T07:13:33.510Z,17.88
2023-05-15T07:16:00.774Z,17.35
2023-05-15T07:18:28.064Z,21.35
2023-05-15T07:20:55.426Z,12.98
2023-05-15T07:23:23.474Z,14.75
2023-05-15T07:25:52.644Z,18.75
2023-05-15T07:28:20.148Z,18.25
2023-05-15T07:30:47.331Z,12.52
2023-05-15T07:33:14.605Z,14.30
2023-05-15T07:35:41.777Z,14.27
2023-05-15T07:38:09.080Z,16.67
2023-05-15T07:40:36.304Z,18.20
2023-05-15T07:43:03.576Z,16.05
2023-05-15T07:45:30.862Z,14.02
2023-05-15T07:47:58.844Z,13.70
2023-05-15T07:50:26.179Z,14.57
2023-05-15T07:52:53.496Z,12.63
2023-05-15T07:55:20.730Z,13.25
2023-05-15T07:57:53.379Z,17.38
2023-05-15T08:00:22.557Z,10.95
2023-05-15T08:02:49.888Z,11.35
2023-05-15T08:05:17.301Z,11.38
2023-05-15T08:07:45.509Z,13.20
2023-05-15T08:10:13.468Z,11.70
2023-05-15T08:12:46.225Z,10.85
2023-05-15T08:15:13.826Z,11.45
2023-05-15T08:17:41.436Z,11.45
2023-05-15T08:20:09.721Z,6.75
2023-05-15T08:22:36.896Z,11.07
2023-05-15T08:25:05.932Z,19.25
2023-05-15T08:27:33.130Z,10.20
2023-05-15T08:30:00.453Z,13.88
2023-05-15T08:32:27.905Z,11.15
2023-05-15T08:34:55.168Z,12.55
2023-05-15T08:37:22.302Z,15.35
2023-05-15T08:39:49.553Z,10.25
2023-05-15T08:42:35.908Z,8.52
2023-05-15T08:45:03.272Z,8.98
2023-05-15T08:47:32.970Z,9.30
2023-05-15T08:50:07.205Z,10.18
2023-05-15T08:52:34.829Z,12.27
2023-05-15T08:55:02.625Z,9.02
2023-05-15T08:57:30.144Z,8.45
2023-05-15T08:59:57.915Z,11.20
2023-05-15T09:02:45.307Z,9.85
2023-05-15T09:05:12.773Z,9.52
2023-05-15T09:07:41.737Z,11.30
2023-05-15T09:10:09.897Z,10.75
2023-05-15T09:12:42.672Z,12.82
2023-05-15T09:15:18.030Z,11.43
2023-05-15T09:17:46.098Z,12.15
2023-05-15T09:20:34.384Z,11.32
2023-05-15T09:23:04.517Z,11.70
2023-05-15T09:25:47.106Z,14.48
2023-05-15T09:28:31.566Z,12.30
2023-05-15T09:31:03.887Z,19.33
2023-05-15T09:33:36.308Z,16.88
2023-05-15T09:36:04.816Z,7.32
2023-05-15T09:38:41.879Z,23.02
2023-05-15T09:41:09.657Z,18.13
2023-05-15T09:43:38.379Z,10.88
2023-05-15T09:46:06.538Z,11.68
2023-05-15T09:48:34.772Z,7.38
2023-05-15T09:51:02.236Z,5.85
2023-05-15T09:53:30.516Z,8.15
2023-05-15T09:55:58.301Z,13.88
2023-05-15T09:58:29.417Z,11.40
2023-05-15T10:00:59.765Z,7.45
2023-05-15T10:03:26.879Z,8.60
2023-05-15T10:06:01.356Z,8.02
2023-05-15T10:08:29.206Z,11.45
2023-05-15T10:10:59.923Z,11.02
2023-05-15T10:13:28.109Z,5.97
2023-05-15T10:15:59.989Z,5.47
2023-05-15T10:18:28.811Z,17.17
2023-05-15T10:20:58.613Z,9.13
2023-05-15T10:23:34.039Z,8.43
2023-05-15T10:26:04.766Z,9.27
2023-05-15T10:28:33.672Z,9.48
2023-05-15T10:31:05.477Z,5.45
2023-05-15T10:33:34.186Z,11.35
2023-05-15T10:36:20.043Z,11.18
2023-05-15T10:38:51.308Z,4.65
2023-05-15T10:41:21.202Z,7.95
2023-05-15T10:43:53.902Z,8.70
2023-05-15T10:46:22.465Z,11.30
2023-05-15T10:48:51.819Z,6.25
2023-05-15T10:51:32.960Z,4.25
2023-05-15T10:54:03.680Z,6.00
2023-05-15T10:56:32.846Z,5.47
2023-05-15T10:59:11.128Z,7.07
2023-05-15T11:01:40.009Z,7.18
2023-05-15T11:04:17.127Z,5.80
2023-05-15T11:06:49.376Z,7.50
2023-05-15T11:09:22.804Z,3.45
2023-05-15T11:12:00.727Z,3.58
2023-05-15T11:14:29.882Z,5.30
2023-05-15T11:16:58.050Z,4.63
2023-05-15T11:19:28.360Z,4.18
2023-05-15T11:22:06.200Z,5.60
2023-05-15T11:24:48.312Z,4.55
2023-05-15T11:27:21.277Z,7.65
2023-05-15T11:30:11.741Z,4.78
2023-05-15T11:32:51.900Z,5.00
2023-05-15T11:35:38.002Z,2.97
2023-05-15T11:38:11.665Z,9.75
2023-05-15T11:40:50.412Z,4.45
2023-05-15T11:43:36.395Z,3.55
2023-05-15T11:46:03.916Z,2.70
2023-05-15T11:48:35.956Z,2.45
2023-05-15T11:51:04.312Z,2.97
2023-05-15T11:53:33.594Z,3.13
2023-05-15T11:56:01.076Z,4.50
2023-05-15T12:02:46.460Z,3.88
2023-05-15T12:05:13.729Z,3.25
2023-05-15T12:07:42.953Z,4.30
2023-05-15T12:10:13.691Z,6.00
2023-05-15T12:12:42.302Z,1.95
2023-05-15T12:15:11.237Z,3.10
2023-05-15T12:17:39.987Z,2.30
2023-05-15T12:20:18.034Z,2.15
2023-05-15T12:22:45.712Z,4.13
2023-05-15T12:25:14.953Z,4.85
2023-05-15T12:27:43.522Z,3.80
2023-05-15T12:30:11.305Z,8.32
2023-05-15T12:32:39.168Z,2.38
2023-05-15T12:35:06.651Z,2.10
2023-05-15T12:37:36.193Z,4.93
2023-05-15T12:40:12.268Z,2.80
2023-05-15T12:46:58.621Z,2.40
2023-05-15T12:49:25.855Z,4.32
2023-05-15T12:51:53.198Z,2.58
2023-05-15T12:54:20.834Z,4.57
2023-05-15T12:56:48.584Z,3.35
2023-05-15T12:59:15.823Z,6.88
2023-05-15T13:01:43.219Z,3.67
2023-05-15T13:04:11.023Z,3.38
2023-05-15T13:06:46.231Z,2.63
2023-05-15T13:09:14.275Z,5.97
2023-05-15T13:11:45.153Z,2.75
2023-05-15T13:14:17.374Z,2.63
2023-05-15T13:16:46.621Z,2.08
2023-05-15T13:19:14.449Z,3.28
2023-05-15T13:21:41.755Z,3.53
2023-05-15T13:24:10.700Z,3.20
2023-05-15T13:26:37.988Z,4.97
2023-05-15T13:29:05.224Z,3.80
2023-05-15T13:31:32.587Z,14.05
2023-05-15T13:33:59.763Z,13.07
2023-05-15T13:36:27.004Z,7.47
2023-05-15T13:38:54.263Z,6.28
2023-05-15T13:41:22.479Z,3.42
2023-05-15T13:43:49.757Z,5.68
2023-05-15T13:46:17.067Z,4.55
2023-05-15T13:48:44.400Z,1.98
2023-05-15T13:51:11.640Z,3.70
2023-05-15T13:53:39.205Z,10.00
2023-05-15T13:56:06.579Z,3.65
2023-05-15T13:58:33.896Z,2.67
2023-05-15T14:01:04.805Z,3.42
2023-05-15T14:03:34.455Z,3.17
2023-05-15T14:06:02.022Z,2.95
2023-05-15T14:08:29.240Z,3.05
2023-05-15T14:10:56.448Z,5.00
2023-05-15T14:13:24.699Z,5.60
2023-05-15T14:15:52.570Z,3.03
2023-05-15T14:18:19.908Z,6.30
2023-05-15T14:20:47.065Z,7.82
2023-05-15T14:23:14.332Z,3.50
2023-05-15T14:25:44.369Z,4.13
2023-05-15T14:28:12.867Z,2.80
2023-05-15T14:30:41.477Z,4.72
2023-05-15T14:33:08.785Z,6.25
2023-05-15T14:35:36.730Z,6.38
2023-05-15T14:38:05.193Z,3.65
2023-05-15T14:40:32.660Z,5.00
2023-05-15T14:42:59.912Z,3.88
2023-05-15T14:45:27.543Z,3.50
2023-05-15T14:47:54.984Z,3.58
2023-05-15T14:50:22.349Z,2.72
2023-05-15T14:52:49.680Z,3.95
2023-05-15T14:55:22.097Z,2.55
2023-05-15T14:57:50.389Z,2.97
2023-05-15T15:00:18.058Z,3.50
2023-05-15T15:02:46.286Z,3.58
2023-05-15T15:05:13.781Z,1.20
2023-05-15T15:08:03.571Z,2.85
2023-05-15T15:10:33.890Z,3.70
2023-05-15T15:13:01.585Z,2.50
2023-05-15T15:15:30.532Z,1.75
2023-05-15T15:17:58.262Z,2.42
2023-05-15T15:20:27.504Z,3.20
2023-05-15T15:22:55.438Z,1.98
2023-05-15T15:25:22.938Z,2.60
2023-05-15T15:27:50.891Z,2.78
2023-05-15T15:30:18.453Z,2.97
2023-05-15T15:32:45.891Z,4.22
2023-05-15T15:35:13.288Z,3.92
2023-05-15T15:37:41.051Z,3.42
2023-05-15T15:40:08.746Z,2.72
2023-05-15T15:42:35.929Z,2.55
2023-05-15T15:45:03.498Z,2.80
2023-05-15T15:47:32.171Z,3.95
2023-05-15T15:50:00.182Z,2.85
2023-05-15T15:52:28.055Z,4.13
2023-05-15T15:54:55.410Z,2.97
2023-05-15T15:57:22.681Z,3.58
2023-05-15T15:59:50.017Z,2.58
2023-05-15T16:02:17.533Z,6.00
2023-05-15T16:04:44.961Z,2.70
2023-05-15T16:07:12.205Z,6.65
2023-05-15T16:09:39.397Z,1.83
2023-05-15T16:12:06.691Z,4.45
2023-05-15T16:14:34.272Z,6.05
2023-05-15T16:17:04.032Z,3.40
2023-05-15T16:19:31.363Z,3.95
2023-05-15T16:21:58.972Z,6.45
2023-05-15T16:24:26.487Z,5.95
2023-05-15T16:26:53.722Z,2.67
2023-05-15T16:29:21.146Z,3.70
2023-05-15T16:31:48.493Z,3.42
2023-05-15T16:34:15.893Z,3.17
2023-05-15T16:36:43.090Z,3.70
2023-05-15T16:39:10.301Z,2.58
2023-05-15T16:41:37.530Z,2.70
2023-05-15T16:44:10.727Z,3.55
2023-05-15T16:46:38.648Z,4.28
2023-05-15T16:49:07.272Z,3.28
2023-05-15T16:51:35.386Z,2.17
2023-05-15T16:54:02.695Z,2.45
2023-05-15T16:56:30.529Z,5.15
2023-05-15T16:58:59.128Z,4.00
2023-05-15T17:01:29.349Z,3.45
2023-05-15T17:03:56.764Z,2.15
2023-05-15T17:06:24.035Z,5.22
2023-05-15T17:08:51.303Z,4.25
2023-05-15T17:11:18.639Z,4.55
2023-05-15T17:13:46.118Z,5.63
2023-05-15T17:16:13.435Z,2.30
2023-05-15T17:18:43.042Z,3.33
2023-05-15T17:21:10.953Z,4.65
2023-05-15T17:23:38.097Z,2.55
2023-05-15T17:26:05.345Z,4.55
2023-05-15T17:28:32.642Z,2.75
2023-05-15T17:31:00.404Z,2.28
2023-05-15T17:33:27.812Z,3.92
2023-05-15T17:35:56.006Z,3.28
2023-05-15T17:38:23.365Z,7.70
2023-05-15T17:43:55.439Z,4.50
2023-05-15T17:46:23.003Z,5.28
2023-05-15T17:48:50.496Z,3.22
2023-05-15T17:51:17.911Z,4.72
2023-05-15T17:53:45.262Z,4.60
2023-05-15T17:56:12.681Z,5.70
2023-05-15T17:58:40.272Z,7.18
2023-05-15T18:01:07.497Z,4.28
2023-05-15T18:03:34.904Z,5.70
2023-05-15T18:06:04.089Z,3.80
2023-05-15T18:08:31.286Z,4.85
2023-05-15T18:11:04.183Z,11.18
2023-05-15T18:13:38.599Z,6.43
2023-05-15T18:16:06.718Z,9.45
2023-05-15T18:18:34.789Z,9.30
2023-05-15T18:21:02.390Z,6.03
2023-05-15T18:23:29.570Z,8.30
2023-05-15T18:25:56.823Z,6.10
2023-05-15T18:28:24.083Z,6.90
2023-05-15T18:30:51.295Z,7.63
2023-05-15T18:33:18.547Z,3.72
2023-05-15T18:35:45.902Z,6.28
2023-05-15T18:38:14.322Z,5.15
2023-05-15T18:40:41.848Z,8.90
2023-05-15T18:43:09.302Z,3.72
2023-05-15T18:45:36.571Z,3.22
2023-05-15T18:48:04.139Z,3.65
2023-05-15T18:50:31.545Z,7.13
2023-05-15T18:52:59.082Z,10.63
2023-05-15T18:55:27.561Z,4.32
2023-05-15T18:57:54.903Z,4.90
2023-05-15T19:00:33.934Z,3.47
2023-05-15T19:03:05.757Z,7.18
2023-05-15T19:05:34.322Z,3.85
2023-05-15T19:08:01.879Z,6.50
2023-05-15T19:10:29.484Z,5.18
2023-05-15T19:12:57.885Z,4.85
2023-05-15T19:15:25.742Z,4.15
2023-05-15T19:17:53.242Z,3.97
2023-05-15T19:20:20.976Z,3.60
2023-05-15T19:22:48.127Z,3.30
2023-05-15T19:25:15.651Z,5.45
2023-05-15T19:27:42.977Z,5.80
2023-05-15T19:30:11.145Z,6.20
2023-05-15T19:32:38.748Z,5.70
2023-05-15T19:35:06.363Z,6.15
2023-05-15T19:37:33.592Z,4.60
2023-05-15T19:40:00.904Z,3.95
2023-05-15T19:42:28.129Z,6.63
2023-05-15T19:44:55.453Z,6.15
2023-05-15T19:47:22.854Z,5.45
2023-05-15T19:49:50.215Z,5.63
2023-05-15T19:52:19.414Z,6.43
2023-05-15T19:54:46.777Z,4.85
2023-05-15T19:57:15.329Z,6.18
2023-05-15T19:59:42.503Z,10.75
2023-05-15T20:02:11.162Z,7.55
2023-05-15T20:04:38.426Z,5.53
2023-05-15T20:07:05.660Z,4.20
2023-05-15T20:09:33.212Z,4.07
2023-05-15T20:12:01.069Z,10.05
2023-05-15T20:14:28.320Z,5.40
2023-05-15T20:16:55.460Z,5.43
2023-05-15T20:19:24.730Z,8.85
2023-05-15T20:21:53.325Z,6.82
2023-05-15T20:24:25.568Z,8.82
2023-05-15T20:26:53.065Z,8.43
2023-05-15T20:29:20.316Z,7.20
2023-05-15T20:31:47.603Z,5.60
2023-05-15T20:34:14.966Z,8.25
2023-05-15T20:36:42.512Z,14.73
2023-05-15T20:39:10.618Z,9.52
2023-05-15T20:41:37.850Z,4.68
2023-05-15T20:44:05.155Z,4.50
2023-05-15T20:46:33.152Z,5.43
2023-05-15T20:49:00.556Z,5.05
2023-05-15T20:51:27.739Z,5.53
2023-05-15T20:53:54.981Z,4.65
2023-05-15T20:56:22.215Z,7.10
2023-05-15T20:58:49.405Z,7.00
2023-05-15T21:01:16.603Z,4.50
2023-05-15T21:03:44.355Z,4.00
2023-05-15T21:06:11.586Z,7.15
2023-05-15T21:08:38.872Z,5.32
2023-05-15T21:11:06.066Z,5.22
2023-05-15T21:13:33.274Z,3.95
2023-05-15T21:16:00.550Z,4.18
2023-05-15T21:18:27.788Z,10.88
2023-05-15T21:20:55.013Z,4.43
2023-05-15T21:23:22.341Z,5.80
2023-05-15T21:25:49.530Z,5.47
2023-05-15T21:28:16.846Z,6.07
2023-05-15T21:30:44.355Z,7.47
2023-05-15T21:33:11.761Z,8.85
2023-05-15T21:35:39.782Z,8.38
2023-05-15T21:38:07.074Z,7.03
2023-05-15T21:40:34.572Z,6.28
2023-05-15T21:43:01.843Z,7.28
2023-05-15T21:45:29.949Z,7.25
2023-05-15T21:47:57.337Z,9.05
2023-05-15T21:50:26.614Z,4.30
2023-05-15T21:52:54.010Z,6.90
2023-05-15T21:55:21.246Z,6.72
2023-05-15T21:57:48.434Z,5.70
2023-05-15T22:00:16.306Z,9.48
2023-05-15T22:03:08.474Z,8.02
2023-05-15T22:05:36.010Z,8.73
2023-05-15T22:08:28.456Z,5.68
2023-05-15T22:10:55.756Z,8.77
2023-05-15T22:13:23.658Z,8.25
2023-05-15T22:23:13.618Z,11.40
2023-05-15T22:25:44.180Z,9.43
2023-05-15T22:28:11.533Z,5.88
2023-05-15T22:30:38.704Z,8.55
2023-05-15T22:33:06.033Z,7.32
2023-05-15T22:35:33.243Z,10.55
2023-05-15T22:38:00.490Z,7.90
2023-05-15T22:40:28.056Z,6.68
2023-05-15T22:42:55.441Z,8.65
2023-05-15T22:45:22.617Z,6.50
2023-05-15T22:47:49.840Z,7.15
2023-05-15T22:50:18.424Z,6.32
2023-05-15T22:52:45.842Z,6.28
2023-05-15T22:55:13.136Z,7.18
2023-05-15T22:57:40.471Z,7.57
2023-05-15T23:00:08.117Z,5.95
2023-05-15T23:02:37.425Z,6.95
2023-05-15T23:05:05.049Z,7.50
2023-05-15T23:07:32.340Z,6.68
2023-05-15T23:09:59.577Z,6.88
2023-05-15T23:12:26.849Z,9.77
2023-05-15T23:14:54.094Z,9.85
2023-05-15T23:17:21.384Z,7.28
2023-05-15T23:19:48.756Z,8.65
2023-05-15T23:22:16.032Z,7.47
2023-05-15T23:24:43.197Z,12.20
2023-05-15T23:27:10.411Z,12.57
2023-05-15T23:29:37.633Z,8.43
2023-05-15T23:32:05.384Z,9.02
2023-05-15T23:34:32.500Z,7.55
2023-05-15T23:36:59.865Z,6.95
2023-05-15T23:39:27.170Z,12.23
2023-05-15T23:41:54.515Z,11.20
2023-05-15T23:44:21.761Z,8.57
2023-05-15T23:46:49.172Z,12.38
2023-05-15T23:49:16.537Z,8.75
2023-05-15T23:51:44.144Z,9.75
2023-05-15T23:54:11.703Z,12.40
2023-05-15T23:56:46.537Z,7.47
2023-05-15T23:59:13.906Z,8.25
